sensor_id;sensor_type;location;lat;lon;timestamp;pressure;altitude;pressure_sealevel;temperature;humidity
49583;BME280;36329;48.816;44.624;2022-12-29T00:02:43;101377;;;1.4;100
49583;BME280;36329;48.816;44.624;2022-12-29T00:05:45;101374;;;1.4;100
49583;BME280;36329;48.816;44.624;2022-12-29T00:08:46;101382;;;1.3;100
49583;BME280;36329;48.816;44.624;2022-12-29T00:11:49;101387;;;1.2;100
49583;BME280;36329;48.816;44.624;2022-12-29T00:14:50;101387;;;1.3;100
49583;BME280;36329;48.816;44.624;2022-12-29T00:17:52;101396;;;1.2;100
49583;BME280;36329;48.816;44.624;2022-12-29T00:20:54;101395;;;1.2;100
49583;BME280;36329;48.816;44.624;2022-12-29T00:23:56;101396;;;1.3;100
49583;BME280;36329;48.816;44.624;2022-12-29T00:27:07;101403;;;1.3;100
49583;BME280;36329;48.816;44.624;2022-12-29T00:30:16;101404;;;1.3;100
49583;BME280;36329;48.816;44.624;2022-12-29T00:33:20;101404;;;1.3;100
49583;BME280;36329;48.816;44.624;2022-12-29T00:36:25;101406;;;1.2;100
49583;BME280;36329;48.816;44.624;2022-12-29T00:39:28;101414;;;1.2;100
49583;BME280;36329;48.816;44.624;2022-12-29T00:42:30;101416;;;1.1;100
49583;BME280;36329;48.816;44.624;2022-12-29T00:45:31;101418;;;1.2;100
49583;BME280;36329;48.816;44.624;2022-12-29T00:48:33;101422;;;1.2;100
49583;BME280;36329;48.816;44.624;2022-12-29T00:51:35;101426;;;1.3;100
49583;BME280;36329;48.816;44.624;2022-12-29T00:54:38;101433;;;1.3;100
49583;BME280;36329;48.816;44.624;2022-12-29T00:57:40;101435;;;1.2;100
49583;BME280;36329;48.816;44.624;2022-12-29T01:00:41;101438;;;1.3;100
49583;BME280;36329;48.816;44.624;2022-12-29T01:03:43;101441;;;1.3;100
49583;BME280;36329;48.816;44.624;2022-12-29T01:06:44;101436;;;1.3;100
49583;BME280;36329;48.816;44.624;2022-12-29T01:09:46;101445;;;1.3;100
49583;BME280;36329;48.816;44.624;2022-12-29T01:12:47;101448;;;1.3;100
49583;BME280;36329;48.816;44.624;2022-12-29T01:15:49;101455;;;1.3;100
49583;BME280;36329;48.816;44.624;2022-12-29T01:18:51;101456;;;1.3;100
49583;BME280;36329;48.816;44.624;2022-12-29T01:21:53;101458;;;1.4;100
49583;BME280;36329;48.816;44.624;2022-12-29T01:24:54;101466;;;1.4;100
49583;BME280;36329;48.816;44.624;2022-12-29T01:27:56;101471;;;1.3;100
49583;BME280;36329;48.816;44.624;2022-12-29T01:31:00;101473;;;1.3;100
49583;BME280;36329;48.816;44.624;2022-12-29T01:34:02;101486;;;1.4;100
49583;BME280;36329;48.816;44.624;2022-12-29T01:37:03;101485;;;1.3;100
49583;BME280;36329;48.816;44.624;2022-12-29T01:40:06;101496;;;1.4;100
49583;BME280;36329;48.816;44.624;2022-12-29T01:43:08;101500;;;1.3;100
49583;BME280;36329;48.816;44.624;2022-12-29T01:46:16;101503;;;1.4;100
49583;BME280;36329;48.816;44.624;2022-12-29T01:49:22;101499;;;1.4;100
49583;BME280;36329;48.816;44.624;2022-12-29T01:52:30;101500;;;1.5;100
49583;BME280;36329;48.816;44.624;2022-12-29T01:55:39;101505;;;1.5;100
49583;BME280;36329;48.816;44.624;2022-12-29T01:58:45;101509;;;1.6;100
49583;BME280;36329;48.816;44.624;2022-12-29T02:01:49;101517;;;1.7;100
49583;BME280;36329;48.816;44.624;2022-12-29T02:04:52;101517;;;1.5;100
49583;BME280;36329;48.816;44.624;2022-12-29T02:07:54;101519;;;1.5;100
49583;BME280;36329;48.816;44.624;2022-12-29T02:10:58;101523;;;1.4;100
49583;BME280;36329;48.816;44.624;2022-12-29T02:14:00;101527;;;1.4;100
49583;BME280;36329;48.816;44.624;2022-12-29T02:17:08;101526;;;1.5;100
49583;BME280;36329;48.816;44.624;2022-12-29T02:20:26;101533;;;1.6;100
49583;BME280;36329;48.816;44.624;2022-12-29T02:23:54;101531;;;1.5;100
49583;BME280;36329;48.816;44.624;2022-12-29T02:27:20;101539;;;1.5;100
49583;BME280;36329;48.816;44.624;2022-12-29T02:30:34;101546;;;1.5;100
49583;BME280;36329;48.816;44.624;2022-12-29T02:33:45;101554;;;1.4;100
49583;BME280;36329;48.816;44.624;2022-12-29T02:37:00;101557;;;1.4;100
49583;BME280;36329;48.816;44.624;2022-12-29T02:40:08;101564;;;1.5;100
49583;BME280;36329;48.816;44.624;2022-12-29T02:43:18;101568;;;1.5;100
49583;BME280;36329;48.816;44.624;2022-12-29T02:46:28;101568;;;1.5;100
49583;BME280;36329;48.816;44.624;2022-12-29T02:49:36;101573;;;1.5;100
49583;BME280;36329;48.816;44.624;2022-12-29T02:52:44;101581;;;1.6;100
49583;BME280;36329;48.816;44.624;2022-12-29T02:55:49;101572;;;1.5;100
49583;BME280;36329;48.816;44.624;2022-12-29T02:58:51;101581;;;1.5;100
49583;BME280;36329;48.816;44.624;2022-12-29T03:02:07;101581;;;1.5;100
49583;BME280;36329;48.816;44.624;2022-12-29T03:05:18;101588;;;1.5;100
49583;BME280;36329;48.816;44.624;2022-12-29T03:08:28;101592;;;1.3;100
49583;BME280;36329;48.816;44.624;2022-12-29T03:11:36;101599;;;1.5;100
49583;BME280;36329;48.816;44.624;2022-12-29T03:14:51;101600;;;1.5;100
49583;BME280;36329;48.816;44.624;2022-12-29T03:17:57;101607;;;1.4;100
49583;BME280;36329;48.816;44.624;2022-12-29T03:21:08;101609;;;1.3;100
49583;BME280;36329;48.816;44.624;2022-12-29T03:24:12;101615;;;1.4;100
49583;BME280;36329;48.816;44.624;2022-12-29T03:27:18;101616;;;1.5;100
49583;BME280;36329;48.816;44.624;2022-12-29T03:30:21;101620;;;1.5;99.8
49583;BME280;36329;48.816;44.624;2022-12-29T03:33:25;101626;;;1.6;98.3
49583;BME280;36329;48.816;44.624;2022-12-29T03:36:39;101625;;;1.6;97.1
49583;BME280;36329;48.816;44.624;2022-12-29T03:39:44;101622;;;1.5;97.4
49583;BME280;36329;48.816;44.624;2022-12-29T03:42:47;101630;;;1.5;96.9
49583;BME280;36329;48.816;44.624;2022-12-29T03:48:55;101646;;;1.5;95.4
49583;BME280;36329;48.816;44.624;2022-12-29T03:51:57;101649;;;1.4;95.1
49583;BME280;36329;48.816;44.624;2022-12-29T03:54:58;101663;;;1.5;94.2
49583;BME280;36329;48.816;44.624;2022-12-29T03:58:00;101664;;;1.4;93.2
49583;BME280;36329;48.816;44.624;2022-12-29T04:01:02;101669;;;1.4;92.8
49583;BME280;36329;48.816;44.624;2022-12-29T04:04:04;101673;;;1.7;92.4
49583;BME280;36329;48.816;44.624;2022-12-29T04:07:05;101680;;;1.8;90.3
49583;BME280;36329;48.816;44.624;2022-12-29T04:10:07;101684;;;1.7;88.2
49583;BME280;36329;48.816;44.624;2022-12-29T04:13:09;101685;;;1.7;88.4
49583;BME280;36329;48.816;44.624;2022-12-29T04:16:11;101693;;;1.7;87.5
49583;BME280;36329;48.816;44.624;2022-12-29T04:19:13;101710;;;1.7;87.4
49583;BME280;36329;48.816;44.624;2022-12-29T04:22:15;101716;;;1.7;84.8
49583;BME280;36329;48.816;44.624;2022-12-29T04:25:16;101715;;;1.6;84.6
49583;BME280;36329;48.816;44.624;2022-12-29T04:28:18;101728;;;1.6;83.6
49583;BME280;36329;48.816;44.624;2022-12-29T04:31:20;101740;;;1.7;83.4
49583;BME280;36329;48.816;44.624;2022-12-29T04:34:21;101741;;;1.7;82.4
49583;BME280;36329;48.816;44.624;2022-12-29T04:37:23;101749;;;1.5;82.6
49583;BME280;36329;48.816;44.624;2022-12-29T04:40:25;101739;;;1.5;83.8
49583;BME280;36329;48.816;44.624;2022-12-29T04:43:26;101745;;;1.6;83.1
49583;BME280;36329;48.816;44.624;2022-12-29T04:46:28;101752;;;1.6;80.8
49583;BME280;36329;48.816;44.624;2022-12-29T04:49:31;101747;;;1.6;79.4
49583;BME280;36329;48.816;44.624;2022-12-29T04:52:32;101752;;;1.4;80.1
49583;BME280;36329;48.816;44.624;2022-12-29T04:55:35;101751;;;1.5;80.1
49583;BME280;36329;48.816;44.624;2022-12-29T04:58:37;101763;;;1.6;79.1
49583;BME280;36329;48.816;44.624;2022-12-29T05:01:38;101771;;;1.8;77.7
49583;BME280;36329;48.816;44.624;2022-12-29T05:04:40;101785;;;1.8;77.5
49583;BME280;36329;48.816;44.624;2022-12-29T05:07:41;101791;;;1.8;78.4
49583;BME280;36329;48.816;44.624;2022-12-29T05:10:44;101791;;;1.8;80.9
49583;BME280;36329;48.816;44.624;2022-12-29T05:16:53;101803;;;1.6;83
49583;BME280;36329;48.816;44.624;2022-12-29T05:19:55;101811;;;1.7;84.7
49583;BME280;36329;48.816;44.624;2022-12-29T05:22:56;101818;;;1.7;84.7
49583;BME280;36329;48.816;44.624;2022-12-29T05:25:58;101818;;;1.7;85.7
49583;BME280;36329;48.816;44.624;2022-12-29T05:29:00;101827;;;1.6;86.7
49583;BME280;36329;48.816;44.624;2022-12-29T05:32:01;101833;;;1.6;86.2
49583;BME280;36329;48.816;44.624;2022-12-29T05:35:03;101837;;;1.7;87.5
49583;BME280;36329;48.816;44.624;2022-12-29T05:38:05;101842;;;1.6;87.6
49583;BME280;36329;48.816;44.624;2022-12-29T05:41:07;101833;;;1.6;88.9
49583;BME280;36329;48.816;44.624;2022-12-29T05:44:09;101841;;;1.5;85
49583;BME280;36329;48.816;44.624;2022-12-29T05:50:18;101864;;;1.6;80.8
49583;BME280;36329;48.816;44.624;2022-12-29T05:53:20;101872;;;1.7;80.1
49583;BME280;36329;48.816;44.624;2022-12-29T05:56:22;101877;;;1.8;80.2
49583;BME280;36329;48.816;44.624;2022-12-29T05:59:23;101883;;;1.8;80.4
49583;BME280;36329;48.816;44.624;2022-12-29T06:02:25;101886;;;1.8;80
49583;BME280;36329;48.816;44.624;2022-12-29T06:05:27;101885;;;2;80.6
49583;BME280;36329;48.816;44.624;2022-12-29T06:08:29;101895;;;2.1;79.9
49583;BME280;36329;48.816;44.624;2022-12-29T06:11:31;101897;;;2;79.8
49583;BME280;36329;48.816;44.624;2022-12-29T06:14:32;101904;;;1.9;80.3
49583;BME280;36329;48.816;44.624;2022-12-29T06:17:34;101899;;;1.9;81.6
49583;BME280;36329;48.816;44.624;2022-12-29T06:20:35;101894;;;2;81.5
49583;BME280;36329;48.816;44.624;2022-12-29T06:23:37;101897;;;2;79.8
49583;BME280;36329;48.816;44.624;2022-12-29T06:26:39;101898;;;2;80.6
49583;BME280;36329;48.816;44.624;2022-12-29T06:29:40;101900;;;2;79.6
49583;BME280;36329;48.816;44.624;2022-12-29T06:32:42;101906;;;2;80.2
49583;BME280;36329;48.816;44.624;2022-12-29T06:35:45;101907;;;2;80.2
49583;BME280;36329;48.816;44.624;2022-12-29T06:38:46;101914;;;2;80
49583;BME280;36329;48.816;44.624;2022-12-29T06:41:48;101911;;;2;79.9
49583;BME280;36329;48.816;44.624;2022-12-29T06:44:53;101917;;;1.9;80.6
49583;BME280;36329;48.816;44.624;2022-12-29T06:47:55;101919;;;1.9;81
49583;BME280;36329;48.816;44.624;2022-12-29T06:50:58;101920;;;1.9;82
49583;BME280;36329;48.816;44.624;2022-12-29T06:53:59;101922;;;2;83.2
49583;BME280;36329;48.816;44.624;2022-12-29T06:57:01;101923;;;1.9;83.2
49583;BME280;36329;48.816;44.624;2022-12-29T07:00:03;101923;;;1.8;83.8
49583;BME280;36329;48.816;44.624;2022-12-29T07:03:06;101915;;;1.9;84
49583;BME280;36329;48.816;44.624;2022-12-29T07:06:10;101928;;;2;84
49583;BME280;36329;48.816;44.624;2022-12-29T07:09:13;101928;;;2;84.1
49583;BME280;36329;48.816;44.624;2022-12-29T07:12:14;101925;;;1.9;84
49583;BME280;36329;48.816;44.624;2022-12-29T07:15:22;101927;;;2;84.1
49583;BME280;36329;48.816;44.624;2022-12-29T07:18:29;101934;;;1.9;84.5
49583;BME280;36329;48.816;44.624;2022-12-29T07:21:37;101927;;;1.9;85.3
49583;BME280;36329;48.816;44.624;2022-12-29T07:24:41;101935;;;2.1;85.2
49583;BME280;36329;48.816;44.624;2022-12-29T07:27:43;101927;;;2.2;85.2
49583;BME280;36329;48.816;44.624;2022-12-29T07:30:46;101937;;;2;85.9
49583;BME280;36329;48.816;44.624;2022-12-29T07:33:48;101937;;;1.8;87.4
49583;BME280;36329;48.816;44.624;2022-12-29T07:36:55;101934;;;1.9;88.1
49583;BME280;36329;48.816;44.624;2022-12-29T07:39:59;101938;;;2.1;87.4
49583;BME280;36329;48.816;44.624;2022-12-29T07:43:02;101926;;;2.3;86.6
49583;BME280;36329;48.816;44.624;2022-12-29T07:46:04;101934;;;2.4;86.8
49583;BME280;36329;48.816;44.624;2022-12-29T07:49:06;101936;;;2.6;85.9
49583;BME280;36329;48.816;44.624;2022-12-29T07:52:08;101930;;;2.9;84.5
49583;BME280;36329;48.816;44.624;2022-12-29T07:55:10;101927;;;3.2;82.9
49583;BME280;36329;48.816;44.624;2022-12-29T07:58:12;101930;;;3.5;82.2
49583;BME280;36329;48.816;44.624;2022-12-29T08:01:13;101921;;;3.7;79.4
49583;BME280;36329;48.816;44.624;2022-12-29T08:04:15;101926;;;4;79
49583;BME280;36329;48.816;44.624;2022-12-29T08:07:17;101929;;;4.4;75.6
49583;BME280;36329;48.816;44.624;2022-12-29T08:10:19;101935;;;6.2;70.8
49583;BME280;36329;48.816;44.624;2022-12-29T08:13:20;101932;;;6;67.6
49583;BME280;36329;48.816;44.624;2022-12-29T08:16:22;101933;;;6.5;65.4
49583;BME280;36329;48.816;44.624;2022-12-29T08:19:24;101933;;;5.3;69
49583;BME280;36329;48.816;44.624;2022-12-29T08:22:25;101938;;;4.9;70.9
49583;BME280;36329;48.816;44.624;2022-12-29T08:25:27;101941;;;4.4;73.5
49583;BME280;36329;48.816;44.624;2022-12-29T08:28:33;101929;;;4.6;74.2
49583;BME280;36329;48.816;44.624;2022-12-29T08:31:35;101938;;;4.7;74
49583;BME280;36329;48.816;44.624;2022-12-29T08:34:38;101934;;;4.3;73.2
49583;BME280;36329;48.816;44.624;2022-12-29T08:37:39;101945;;;4;75.1
49583;BME280;36329;48.816;44.624;2022-12-29T08:40:41;101945;;;3.9;75.4
49583;BME280;36329;48.816;44.624;2022-12-29T08:43:45;101953;;;4;75.3
49583;BME280;36329;48.816;44.624;2022-12-29T08:46:47;101955;;;4.8;72
49583;BME280;36329;48.816;44.624;2022-12-29T08:49:49;101950;;;5.6;67.8
49583;BME280;36329;48.816;44.624;2022-12-29T08:52:50;101960;;;5.3;69.4
49583;BME280;36329;48.816;44.624;2022-12-29T08:55:58;101956;;;4.7;69.7
49583;BME280;36329;48.816;44.624;2022-12-29T08:59:00;101960;;;5.2;69.7
49583;BME280;36329;48.816;44.624;2022-12-29T09:02:02;101958;;;5.1;69.5
49583;BME280;36329;48.816;44.624;2022-12-29T09:05:04;101958;;;4.9;69.4
49583;BME280;36329;48.816;44.624;2022-12-29T09:08:06;101959;;;5.8;66.9
49583;BME280;36329;48.816;44.624;2022-12-29T09:11:10;101957;;;5.3;66.2
49583;BME280;36329;48.816;44.624;2022-12-29T09:14:12;101968;;;5.6;65.3
49583;BME280;36329;48.816;44.624;2022-12-29T09:17:15;101965;;;4.9;67.5
49583;BME280;36329;48.816;44.624;2022-12-29T09:20:18;101973;;;4.7;68.7
49583;BME280;36329;48.816;44.624;2022-12-29T09:23:20;101972;;;4.4;70.1
49583;BME280;36329;48.816;44.624;2022-12-29T09:26:22;101967;;;4.4;69.9
49583;BME280;36329;48.816;44.624;2022-12-29T09:29:24;101969;;;5;67.1
49583;BME280;36329;48.816;44.624;2022-12-29T09:32:26;101968;;;6;63.5
49583;BME280;36329;48.816;44.624;2022-12-29T09:35:28;101974;;;6.8;60.8
49583;BME280;36329;48.816;44.624;2022-12-29T09:38:29;101968;;;6.5;60.8
49583;BME280;36329;48.816;44.624;2022-12-29T09:41:35;101964;;;6.8;60.3
49583;BME280;36329;48.816;44.624;2022-12-29T09:44:48;101971;;;6.9;58.2
49583;BME280;36329;48.816;44.624;2022-12-29T09:47:53;101971;;;6.7;59
49583;BME280;36329;48.816;44.624;2022-12-29T09:50:59;101975;;;6.7;58.9
49583;BME280;36329;48.816;44.624;2022-12-29T09:54:12;101978;;;8.1;55.9
49583;BME280;36329;48.816;44.624;2022-12-29T09:57:23;101983;;;8.5;52.8
49583;BME280;36329;48.816;44.624;2022-12-29T10:00:33;101982;;;9.3;50.4
49583;BME280;36329;48.816;44.624;2022-12-29T10:03:45;101984;;;9.5;51.1
49583;BME280;36329;48.816;44.624;2022-12-29T10:06:54;101987;;;9.2;49.6
49583;BME280;36329;48.816;44.624;2022-12-29T10:10:05;101991;;;9.7;49.5
49583;BME280;36329;48.816;44.624;2022-12-29T10:13:19;101983;;;9.8;47.9
49583;BME280;36329;48.816;44.624;2022-12-29T10:16:30;101984;;;9.1;49.3
49583;BME280;36329;48.816;44.624;2022-12-29T10:19:45;101981;;;8.3;50.5
49583;BME280;36329;48.816;44.624;2022-12-29T10:23:00;101983;;;7.7;54.4
49583;BME280;36329;48.816;44.624;2022-12-29T10:26:09;101982;;;7.5;53.4
49583;BME280;36329;48.816;44.624;2022-12-29T10:29:17;101986;;;7.9;54
49583;BME280;36329;48.816;44.624;2022-12-29T10:32:32;102004;;;7.1;53.7
49583;BME280;36329;48.816;44.624;2022-12-29T10:35:39;101999;;;6.5;54.2
49583;BME280;36329;48.816;44.624;2022-12-29T10:38:46;102007;;;5.9;56.9
49583;BME280;36329;48.816;44.624;2022-12-29T10:41:54;102008;;;5.7;57.2
49583;BME280;36329;48.816;44.624;2022-12-29T10:44:58;102008;;;5.7;57.4
49583;BME280;36329;48.816;44.624;2022-12-29T10:48:03;102009;;;5.8;57.6
49583;BME280;36329;48.816;44.624;2022-12-29T10:51:08;102005;;;5.4;59.4
49583;BME280;36329;48.816;44.624;2022-12-29T10:54:14;102005;;;6.1;57.1
49583;BME280;36329;48.816;44.624;2022-12-29T10:57:27;101999;;;6.2;56.8
49583;BME280;36329;48.816;44.624;2022-12-29T11:00:31;102009;;;5.7;57.4
49583;BME280;36329;48.816;44.624;2022-12-29T11:03:42;102005;;;5.1;60.1
49583;BME280;36329;48.816;44.624;2022-12-29T11:06:48;102011;;;4.3;61.3
49583;BME280;36329;48.816;44.624;2022-12-29T11:09:51;102017;;;3.9;63.7
49583;BME280;36329;48.816;44.624;2022-12-29T11:12:56;102010;;;4.4;64.1
49583;BME280;36329;48.816;44.624;2022-12-29T11:15:58;102012;;;4.6;62.7
49583;BME280;36329;48.816;44.624;2022-12-29T11:19:01;102011;;;4.5;63.8
49583;BME280;36329;48.816;44.624;2022-12-29T11:22:13;102018;;;4.3;63.3
49583;BME280;36329;48.816;44.624;2022-12-29T11:25:20;102029;;;4.4;63.4
49583;BME280;36329;48.816;44.624;2022-12-29T11:28:22;102028;;;4.4;63.9
49583;BME280;36329;48.816;44.624;2022-12-29T11:31:24;102035;;;4.8;62.7
49583;BME280;36329;48.816;44.624;2022-12-29T11:34:31;102034;;;5.2;61.8
49583;BME280;36329;48.816;44.624;2022-12-29T11:37:38;102038;;;4.9;61.7
49583;BME280;36329;48.816;44.624;2022-12-29T11:40:41;102043;;;4.1;64.2
49583;BME280;36329;48.816;44.624;2022-12-29T11:43:45;102038;;;4.1;65.1
49583;BME280;36329;48.816;44.624;2022-12-29T11:46:54;102044;;;4.1;65.2
49583;BME280;36329;48.816;44.624;2022-12-29T11:49:59;102048;;;4.9;63.6
49583;BME280;36329;48.816;44.624;2022-12-29T11:53:06;102055;;;5.5;59.9
49583;BME280;36329;48.816;44.624;2022-12-29T11:56:12;102054;;;5.3;60.4
49583;BME280;36329;48.816;44.624;2022-12-29T11:59:39;102055;;;5.2;61.1
49583;BME280;36329;48.816;44.624;2022-12-29T12:02:45;102064;;;4.9;62.1
49583;BME280;36329;48.816;44.624;2022-12-29T12:05:54;102056;;;4.3;63.4
49583;BME280;36329;48.816;44.624;2022-12-29T12:09:00;102063;;;4;65.2
49583;BME280;36329;48.816;44.624;2022-12-29T12:12:05;102061;;;3.9;66.6
49583;BME280;36329;48.816;44.624;2022-12-29T12:15:16;102064;;;4.1;66.5
49583;BME280;36329;48.816;44.624;2022-12-29T12:18:30;102074;;;3.8;67.3
49583;BME280;36329;48.816;44.624;2022-12-29T12:21:38;102077;;;3.8;69.3
49583;BME280;36329;48.816;44.624;2022-12-29T12:24:44;102081;;;3.7;69.2
49583;BME280;36329;48.816;44.624;2022-12-29T12:27:52;102086;;;3.7;70
49583;BME280;36329;48.816;44.624;2022-12-29T12:30:59;102092;;;3.7;71.3
49583;BME280;36329;48.816;44.624;2022-12-29T12:34:05;102087;;;3.7;70.6
49583;BME280;36329;48.816;44.624;2022-12-29T12:37:21;102092;;;3.6;71.3
49583;BME280;36329;48.816;44.624;2022-12-29T12:40:34;102085;;;3.4;72.6
49583;BME280;36329;48.816;44.624;2022-12-29T12:43:45;102096;;;3.3;72.7
49583;BME280;36329;48.816;44.624;2022-12-29T12:47:01;102093;;;3.2;73.6
49583;BME280;36329;48.816;44.624;2022-12-29T12:50:14;102096;;;3.4;73.7
49583;BME280;36329;48.816;44.624;2022-12-29T12:53:24;102100;;;3.2;74.3
49583;BME280;36329;48.816;44.624;2022-12-29T12:56:39;102103;;;3.2;74.4
49583;BME280;36329;48.816;44.624;2022-12-29T12:59:52;102108;;;3.1;75.8
49583;BME280;36329;48.816;44.624;2022-12-29T13:03:04;102102;;;2.7;77.4
49583;BME280;36329;48.816;44.624;2022-12-29T13:06:18;102104;;;2.9;77.2
49583;BME280;36329;48.816;44.624;2022-12-29T13:09:29;102108;;;2.6;77.8
49583;BME280;36329;48.816;44.624;2022-12-29T13:12:42;102114;;;2.5;79.2
49583;BME280;36329;48.816;44.624;2022-12-29T13:15:53;102115;;;2.5;79.5
49583;BME280;36329;48.816;44.624;2022-12-29T13:19:01;102117;;;2.6;79.7
49583;BME280;36329;48.816;44.624;2022-12-29T13:22:09;102116;;;2.6;80.6
49583;BME280;36329;48.816;44.624;2022-12-29T13:25:23;102127;;;2.5;81.6
49583;BME280;36329;48.816;44.624;2022-12-29T13:28:31;102122;;;2.5;82.8
49583;BME280;36329;48.816;44.624;2022-12-29T13:31:42;102122;;;2.3;83.5
49583;BME280;36329;48.816;44.624;2022-12-29T13:34:54;102129;;;2.5;83.3
49583;BME280;36329;48.816;44.624;2022-12-29T13:38:01;102136;;;2.5;83.8
49583;BME280;36329;48.816;44.624;2022-12-29T13:41:08;102135;;;2.4;84.3
49583;BME280;36329;48.816;44.624;2022-12-29T13:44:16;102141;;;2.5;84.6
49583;BME280;36329;48.816;44.624;2022-12-29T13:47:23;102145;;;2.4;85.6
49583;BME280;36329;48.816;44.624;2022-12-29T13:50:33;102144;;;2.5;85.8
49583;BME280;36329;48.816;44.624;2022-12-29T13:53:42;102148;;;2.5;85.7
49583;BME280;36329;48.816;44.624;2022-12-29T13:56:54;102150;;;2.3;87.4
49583;BME280;36329;48.816;44.624;2022-12-29T14:00:03;102156;;;2.4;87.3
49583;BME280;36329;48.816;44.624;2022-12-29T14:03:19;102164;;;2.1;89.4
49583;BME280;36329;48.816;44.624;2022-12-29T14:06:28;102157;;;2.3;90.1
49583;BME280;36329;48.816;44.624;2022-12-29T14:09:41;102168;;;2.3;90
49583;BME280;36329;48.816;44.624;2022-12-29T14:12:44;102170;;;2.2;90.3
49583;BME280;36329;48.816;44.624;2022-12-29T14:15:50;102159;;;2.3;90.5
49583;BME280;36329;48.816;44.624;2022-12-29T14:18:55;102166;;;2.2;91
49583;BME280;36329;48.816;44.624;2022-12-29T14:22:01;102169;;;2.2;91
49583;BME280;36329;48.816;44.624;2022-12-29T14:25:03;102169;;;2.2;91
49583;BME280;36329;48.816;44.624;2022-12-29T14:28:16;102170;;;2.1;91.4
49583;BME280;36329;48.816;44.624;2022-12-29T14:31:35;102170;;;2.2;92
49583;BME280;36329;48.816;44.624;2022-12-29T14:34:39;102174;;;2;92.1
49583;BME280;36329;48.816;44.624;2022-12-29T14:37:41;102173;;;2.2;92
49583;BME280;36329;48.816;44.624;2022-12-29T14:40:43;102180;;;2.1;91.7
49583;BME280;36329;48.816;44.624;2022-12-29T14:43:56;102180;;;2;92.8
49583;BME280;36329;48.816;44.624;2022-12-29T14:47:04;102178;;;1.9;92.9
49583;BME280;36329;48.816;44.624;2022-12-29T14:50:13;102182;;;2;93.8
49583;BME280;36329;48.816;44.624;2022-12-29T14:56:43;102181;;;1.9;94
49583;BME280;36329;48.816;44.624;2022-12-29T14:59:46;102182;;;1.9;94.4
49583;BME280;36329;48.816;44.624;2022-12-29T15:02:52;102178;;;2;94.3
49583;BME280;36329;48.816;44.624;2022-12-29T15:05:59;102185;;;2;93.7
49583;BME280;36329;48.816;44.624;2022-12-29T15:09:12;102183;;;2.1;93
49583;BME280;36329;48.816;44.624;2022-12-29T15:12:21;102186;;;2;91.4
49583;BME280;36329;48.816;44.624;2022-12-29T15:15:27;102186;;;1.9;92.7
49583;BME280;36329;48.816;44.624;2022-12-29T15:18:30;102186;;;1.8;92.9
49583;BME280;36329;48.816;44.624;2022-12-29T15:21:34;102187;;;1.9;91.9
49583;BME280;36329;48.816;44.624;2022-12-29T15:24:40;102190;;;1.8;91.5
49583;BME280;36329;48.816;44.624;2022-12-29T15:27:48;102182;;;1.9;90.7
49583;BME280;36329;48.816;44.624;2022-12-29T15:30:52;102180;;;1.7;91.1
49583;BME280;36329;48.816;44.624;2022-12-29T15:34:02;102186;;;1.8;91.6
49583;BME280;36329;48.816;44.624;2022-12-29T15:37:06;102188;;;1.8;90.5
49583;BME280;36329;48.816;44.624;2022-12-29T15:40:21;102193;;;1.7;90.7
49583;BME280;36329;48.816;44.624;2022-12-29T15:43:32;102186;;;1.7;90.6
49583;BME280;36329;48.816;44.624;2022-12-29T15:46:39;102190;;;1.6;90.5
49583;BME280;36329;48.816;44.624;2022-12-29T15:49:41;102185;;;1.5;91.7
49583;BME280;36329;48.816;44.624;2022-12-29T15:52:43;102191;;;1.5;91.6
49583;BME280;36329;48.816;44.624;2022-12-29T15:55:45;102190;;;1.4;92.1
49583;BME280;36329;48.816;44.624;2022-12-29T15:58:49;102189;;;1.2;93.5
49583;BME280;36329;48.816;44.624;2022-12-29T16:01:51;102189;;;1.2;93.6
49583;BME280;36329;48.816;44.624;2022-12-29T16:04:53;102184;;;1;94.6
49583;BME280;36329;48.816;44.624;2022-12-29T16:07:56;102183;;;1.1;94.4
49583;BME280;36329;48.816;44.624;2022-12-29T16:10:58;102180;;;1;94.6
49583;BME280;36329;48.816;44.624;2022-12-29T16:14:02;102185;;;0.9;95.3
49583;BME280;36329;48.816;44.624;2022-12-29T16:17:15;102182;;;0.8;96.3
49583;BME280;36329;48.816;44.624;2022-12-29T16:20:22;102184;;;0.9;96.4
49583;BME280;36329;48.816;44.624;2022-12-29T16:23:27;102180;;;0.8;96.3
49583;BME280;36329;48.816;44.624;2022-12-29T16:29:37;102181;;;1;96.7
49583;BME280;36329;48.816;44.624;2022-12-29T16:32:46;102183;;;1.3;98.7
49583;BME280;36329;48.816;44.624;2022-12-29T16:39:19;102187;;;1;94.9
49583;BME280;36329;48.816;44.624;2022-12-29T16:49:15;102192;;;1.1;94.7
49583;BME280;36329;48.816;44.624;2022-12-29T16:52:21;102195;;;1.1;94.6
49583;BME280;36329;48.816;44.624;2022-12-29T16:55:24;102192;;;1.2;94.2
49583;BME280;36329;48.816;44.624;2022-12-29T16:58:27;102196;;;1;95.1
49583;BME280;36329;48.816;44.624;2022-12-29T17:01:30;102194;;;0.9;96.7
49583;BME280;36329;48.816;44.624;2022-12-29T17:04:31;102190;;;0.8;96.9
49583;BME280;36329;48.816;44.624;2022-12-29T17:07:33;102188;;;0.8;97.8
49583;BME280;36329;48.816;44.624;2022-12-29T17:10:34;102188;;;0.8;98.5
49583;BME280;36329;48.816;44.624;2022-12-29T17:13:37;102193;;;0.6;99.2
49583;BME280;36329;48.816;44.624;2022-12-29T17:16:39;102195;;;0.6;100
49583;BME280;36329;48.816;44.624;2022-12-29T17:19:43;102193;;;0.6;100
49583;BME280;36329;48.816;44.624;2022-12-29T17:22:46;102203;;;0.7;100
49583;BME280;36329;48.816;44.624;2022-12-29T17:25:48;102198;;;0.8;100
49583;BME280;36329;48.816;44.624;2022-12-29T17:28:50;102195;;;0.7;100
49583;BME280;36329;48.816;44.624;2022-12-29T17:31:51;102192;;;0.9;100
49583;BME280;36329;48.816;44.624;2022-12-29T17:34:53;102196;;;0.9;99.2
49583;BME280;36329;48.816;44.624;2022-12-29T17:37:55;102199;;;0.7;100
49583;BME280;36329;48.816;44.624;2022-12-29T17:40:57;102201;;;0.6;100
49583;BME280;36329;48.816;44.624;2022-12-29T17:44:00;102196;;;0.6;100
49583;BME280;36329;48.816;44.624;2022-12-29T17:47:02;102202;;;0.6;100
49583;BME280;36329;48.816;44.624;2022-12-29T17:50:08;102206;;;0.7;100
49583;BME280;36329;48.816;44.624;2022-12-29T17:53:13;102204;;;0.8;100